Startpagina
METAR-TAF:

METAR-TAF

Vliegvelden :

Seward, Alaska, Verenigde Staten

breedte: 60-07N, lengte: 149-27W, hoogte: 9 m

Actueel weer

Dit bericht is 25 minuten geleden gemaakt, om 12:53 UTC
Wind 8 kt uit het noorden
Temperatuur 4°C
Vochtigheid 87%
Druk 983 hPa
Zicht: 16.1 km
Gebroken wolken op 5500 ft

METAR: PAWD 181253Z AUTO 35008KT 10SM BKN055 04/02 A2904 RMK AO2 SLP833 T00390017 TSNO

Tijdstip: 05:18 (13:18 UTC)


TAF: ontbreekt

Waarnemingen en weersverwachtingen van meer dan 4000 vliegvelden (METAR en TAF).

De beschikbare stations zijn de gele en rode punten op de kaart.

Ga met uw muis naar het station om de naam te zien.

Klik dan om waarnemingen en weersverwachtingen te zien.

kaart wijzigen: klik op de groene knoppen met een zwart kruis om in te zoomen, op de groene knop met een streepje om uit te zoomen of op de groene pijlen voor aangrenzende kaarten.


METAR-TAF: